| Temperature (°F) | Max | Average | Min |
|---|---|---|---|
| Max Temperature | 82 | 72.97 | 64 |
| Avg Temperature | 69.48 | 64 | 55.17 |
| Min Temperature | 63 | 54.65 | 50 |
| Precipitation (in) | Max | Average | Min | Sum |
|---|---|---|---|---|
| Precipitation | 0 | 0 | 0 | 0 |
| Dew Point (°F) | Max | Average | Min |
|---|---|---|---|
| Dew Point | 60.04 | 52.9 | 46.98 |
| Wind (mph) | Max | Average | Min |
|---|---|---|---|
| Wind | 21 | 12.32 | 7 |
| Gust Wind | 32 | 26.57 | 16 |
| Sea Level Pressure (in) | Max | Average | Min |
|---|---|---|---|
| Sea Level Pressure | 30.16 | 29.95 | 29.57 |
| Date | Temp High/Low | Dew Pt High/Low | Humidity | Wind | Max Wind | Wind Gust | Pressure | Precip. | Condition |
|---|---|---|---|---|---|---|---|---|---|
| 4/1/2024 | 75 °F / 57 °F | 55 °F / 46 °F | 57 % | 20 mph | - | 30.02 in | 0 in | ||
| 4/2/2024 | 72 °F / 61 °F | 61 °F / 45 °F | 66 % | 12 mph | - | 29.97 in | 0 in | ||
| 4/3/2024 | 72 °F / 54 °F | 50 °F / 41 °F | 61 % | 7 mph | - | 30.01 in | 0 in | ||
| 4/4/2024 | 72 °F / 52 °F | 52 °F / 41 °F | 62 % | 14 mph | - | 30.03 in | 0 in | ||
| 4/5/2024 | 73 °F / 50 °F | 54 °F / 46 °F | 65 % | 9 mph | - | 30.12 in | 0 in | ||
| 4/6/2024 | 75 °F / 54 °F | 59 °F / 50 °F | 73 % | 8 mph | - | 30.12 in | 0 in | ||
| 4/7/2024 | 75 °F / 54 °F | 61 °F / 50 °F | 73 % | 8 mph | - | 30 in | 0 in | ||
| 4/8/2024 | 77 °F / 57 °F | 59 °F / 50 °F | 68 % | 15 mph | - | 30.05 in | 0 in | ||
| 4/9/2024 | 77 °F / 54 °F | 57 °F / 41 °F | 63 % | 12 mph | - | 30.03 in | 0 in | ||
| 4/10/2024 | 73 °F / 52 °F | 57 °F / 46 °F | 69 % | 9 mph | - | 30.01 in | 0 in | ||
| 4/11/2024 | 75 °F / 54 °F | 61 °F / 50 °F | 69 % | 7 mph | - | 30.09 in | 0 in | ||
| 4/12/2024 | 82 °F / 55 °F | 61 °F / 50 °F | 68 % | 12 mph | - | 30.16 in | 0 in | ||
| 4/13/2024 | 82 °F / 57 °F | 61 °F / 52 °F | 66 % | 13 mph | - | 30.16 in | 0 in | ||
| 4/14/2024 | 81 °F / 59 °F | 64 °F / 55 °F | 73 % | 8 mph | - | 30.14 in | 0 in | ||
| 4/15/2024 | 77 °F / 59 °F | 64 °F / 55 °F | 79 % | 8 mph | - | 30.06 in | 0 in | ||
| 4/16/2024 | 72 °F / 63 °F | 61 °F / 54 °F | 76 % | 9 mph | - | 29.85 in | 0 in | ||
| 4/17/2024 | 70 °F / 61 °F | 64 °F / 50 °F | 77 % | 21 mph | - | 29.57 in | 0 in | ||
| 4/18/2024 | 66 °F / 55 °F | 55 °F / 45 °F | 69 % | 12 mph | - | 29.72 in | 0 in | ||
| 4/19/2024 | 64 °F / 50 °F | 54 °F / 45 °F | 84 % | 16 mph | - | 29.73 in | 0 in | ||
| 4/20/2024 | 68 °F / 52 °F | 50 °F / 45 °F | 63 % | 18 mph | - | 29.75 in | 0 in | ||
| 4/21/2024 | 64 °F / 54 °F | 54 °F / 48 °F | 70 % | 20 mph | - | 29.81 in | 0 in | ||
| 4/22/2024 | 64 °F / 50 °F | 55 °F / 45 °F | 76 % | 7 mph | - | 29.89 in | 0 in | ||
| 4/23/2024 | 77 °F / 57 °F | 61 °F / 55 °F | 79 % | 15 mph | - | 29.63 in | 0 in | ||
| 4/24/2024 | 70 °F / 54 °F | 57 °F / 45 °F | 67 % | 12 mph | - | 29.75 in | 0 in | ||
| 4/25/2024 | 66 °F / 54 °F | 54 °F / 41 °F | 69 % | 18 mph | - | 29.74 in | 0 in | ||
| 4/26/2024 | 66 °F / 50 °F | 57 °F / 46 °F | 76 % | 10 mph | - | 29.92 in | 0 in | ||
| 4/27/2024 | 72 °F / 54 °F | 57 °F / 50 °F | 74 % | 9 mph | - | 29.98 in | 0 in | ||
| 4/28/2024 | 79 °F / 55 °F | 61 °F / 48 °F | 67 % | 9 mph | - | 30.02 in | 0 in | ||
| 4/29/2024 | 81 °F / 55 °F | 61 °F / 50 °F | 64 % | 10 mph | - | 30.03 in | 0 in | ||
| 4/30/2024 | 79 °F / 55 °F | 61 °F / 52 °F | 67 % | 15 mph | - | 30.02 in | 0 in |